Terminal Aerodrome Forecast
Issued by NWS Boston, MA

Home | Current Version | Previous Version | Text Only | Print | Product List | Glossary On
Versions: 1 2 3 4 5 6 7 8 9 10 11 12 13 14 15 16 17 18 19 20 21 22 23 24 25 26 27 28 29 30 31 32 33 34 35 36 37 38 39 40 41 42 43 44 45 46
000
FTUS41 KBOX 241741 RRA
TAFBOS
TAF
KBOS 241741Z 2418/2524 20010G20KT P6SM FEW030 BKN120 BKN250
     FM250500 20008KT 3SM BR BKN090
     FM251100 18006KT 1SM BR BKN100
     FM251300 16007KT P6SM BKN130
     FM251700 16008KT P6SM BKN020
     FM251900 16008KT P6SM VCSH BKN025
     FM252200 15008KT P6SM VCSH BKN015=

USA.gov is the U.S. government's official web portal to all federal, state and local government web resources and services.